Aviation Digital Data Service (ADDS)

Output produced by METARs form (0753 UTC 29 July 2016)
found at http://aviationweather.gov/adds/metars/
 
KISP 290540Z 2906/3006 33004KT P6SM OVC080 
     FM290800 07005KT 6SM -SHRA OVC050 
     FM291200 05009KT 4SM -SHRA OVC009 
     FM291400 36012G20KT 2SM SHRA OVC009 
     FM291800 01010G18KT P6SM VCSH BKN015 
     FM292100 01012G18KT P6SM BKN040 
     FM300200 36004KT P6SM BKN250